Time;durP1;ratioP1;P1;durP2;ratioP2;P2;SDS_P1;SDS_P2;PMS_P1;PMS_P2;Temp;Humidity;BMP_temperature;BMP_pressure;BME280_temperature;BME280_humidity;BME280_pressure;Samples;Min_cycle;Max_cycle;Signal;HPM_P1;HPM_P2
2022/10/16 00:01:12;;;;;;;12.07;8.25;;;;;;;13.97;81.55;99129.41;1750200;82;21019;-45
2022/10/16 00:03:40;;;;;;;12.68;8.90;;;;;;;13.97;81.30;99132.50;1750158;82;21485;-46
2022/10/16 00:06:07;;;;;;;;;;;;;;;13.95;81.85;99137.06;1752948;82;20964;-41
2022/10/16 00:08:33;;;;;;;18.92;8.83;;;;;;;13.88;82.23;99136.67;1750345;82;20123;-45
2022/10/16 00:11:12;;;;;;;19.73;8.25;;;;;;;13.90;81.58;99141.38;1750208;82;20975;-42
2022/10/16 00:13:41;;;;;;;12.68;8.70;;;;;;;13.90;81.62;99148.44;1750220;82;20984;-45
2022/10/16 00:16:08;;;;;;;10.93;7.80;;;;;;;13.89;81.96;99152.05;1723158;82;21465;-46
2022/10/16 00:18:34;;;;;;;16.07;8.20;;;;;;;13.85;81.85;99144.81;1750441;82;21456;-48
2022/10/16 00:21:15;;;;;;;13.18;8.25;;;;;;;13.80;81.92;99150.41;1750218;82;20968;-46
2022/10/16 00:23:41;;;;;;;18.00;8.60;;;;;;;13.78;82.01;99151.48;1750167;82;20967;-39
2022/10/16 00:26:11;;;;;;;12.03;8.43;;;;;;;13.73;82.40;99145.20;1750183;82;21019;-50
2022/10/16 00:28:37;;;;;;;14.45;8.93;;;;;;;13.69;82.39;99143.73;1750150;82;21027;-42
2022/10/16 00:31:05;;;;;;;14.43;8.50;;;;;;;13.66;82.84;99141.78;1750287;80;21484;-44
2022/10/16 00:33:31;;;;;;;17.82;8.03;;;;;;;13.63;82.30;99145.01;1750409;82;21508;-40
2022/10/16 00:36:01;;;;;;;13.55;8.38;;;;;;;13.60;82.60;99145.22;1750207;82;20984;-45
2022/10/16 00:38:27;;;;;;;10.72;7.90;;;;;;;13.53;82.80;99139.16;1750192;82;20970;-41
2022/10/16 00:40:52;;;;;;;13.65;8.10;;;;;;;13.50;82.67;99144.19;1750224;82;21027;-43
2022/10/16 00:43:40;;;;;;;13.65;9.20;;;;;;;13.46;83.51;99144.49;1750168;80;21481;-46
2022/10/16 00:46:19;;;;;;;13.10;8.70;;;;;;;13.44;83.09;99148.11;1750155;82;20983;-48
2022/10/16 00:48:50;;;;;;;14.35;8.45;;;;;;;13.41;83.26;99153.59;1745834;82;20984;-46
2022/10/16 00:51:20;;;;;;;14.83;8.35;;;;;;;13.38;83.11;99150.31;1742847;82;20963;-40
2022/10/16 00:53:46;;;;;;;13.95;8.30;;;;;;;13.34;83.68;99145.72;1743571;82;21030;-41
2022/10/16 00:56:12;;;;;;;15.58;8.78;;;;;;;13.29;84.21;99142.52;1743794;82;20976;-42
2022/10/16 00:58:38;;;;;;;14.58;8.35;;;;;;;13.28;84.13;99151.86;1743566;82;21015;-46
2022/10/16 01:01:04;;;;;;;11.30;8.28;;;;;;;13.25;84.13;99161.69;1743559;81;20987;-46
2022/10/16 01:03:34;;;;;;;11.83;8.55;;;;;;;13.22;84.18;99159.73;1743547;82;21026;-46
2022/10/16 01:06:36;;;;;;;11.38;8.18;;;;;;;13.19;84.45;99161.28;1743718;82;20983;-42
2022/10/16 01:09:13;;;;;;;12.33;7.85;;;;;;;13.16;84.82;99164.12;1743484;82;20967;-44
2022/10/16 01:11:51;;;;;;;;;;;;;;;13.11;85.45;99171.50;1746110;82;20956;-43
2022/10/16 01:14:34;;;;;;;15.48;8.33;;;;;;;13.06;85.60;99175.30;1726937;82;20134;-43
2022/10/16 01:17:39;;;;;;;15.28;8.90;;;;;;;13.04;85.46;99165.78;1714821;84;21019;-43
2022/10/16 01:20:27;;;;;;;11.22;8.18;;;;;;;13.01;85.68;99168.64;1697061;84;20976;-40
2022/10/16 01:23:26;;;;;;;20.45;8.23;;;;;;;12.98;85.65;99167.52;1696966;84;20999;-47
2022/10/16 01:26:15;;;;;;;10.23;8.05;;;;;;;12.95;85.77;99164.63;1743369;82;20956;-42
2022/10/16 01:29:08;;;;;;;14.55;8.45;;;;;;;12.93;85.07;99163.02;1743152;82;21028;-47
2022/10/16 01:31:38;;;;;;;11.45;8.53;;;;;;;12.90;85.99;99167.17;1743515;82;21493;-45
2022/10/16 01:34:12;;;;;;;13.88;8.48;;;;;;;12.87;85.98;99161.64;1743501;81;20968;-39
2022/10/16 01:36:49;;;;;;;16.05;8.73;;;;;;;12.84;86.05;99160.52;1743454;82;20964;-45
2022/10/16 01:39:20;;;;;;;11.20;7.80;;;;;;;12.83;85.91;99165.44;1743347;82;21030;-40
2022/10/16 01:41:51;;;;;;;13.83;8.20;;;;;;;12.83;86.10;99165.44;1743698;82;20988;-45
2022/10/16 01:44:28;;;;;;;16.82;8.70;;;;;;;12.80;86.93;99163.83;1743527;82;20973;-48
2022/10/16 01:46:55;;;;;;;17.40;8.68;;;;;;;12.76;87.61;99166.80;1743846;82;20980;-46
2022/10/16 01:49:25;;;;;;;9.33;7.80;;;;;;;12.76;86.89;99170.27;1748752;82;21020;-44
2022/10/16 01:51:55;;;;;;;14.25;9.38;;;;;;;12.75;86.75;99167.73;1750145;82;20980;-46
2022/10/16 01:54:26;;;;;;;15.78;9.40;;;;;;;12.74;86.85;99173.97;1750080;82;20979;-41
2022/10/16 01:56:51;;;;;;;11.78;9.50;;;;;;;12.71;87.03;99173.68;1750150;82;20979;-45
2022/10/16 01:59:21;;;;;;;15.13;8.83;;;;;;;12.68;87.17;99178.70;1750259;82;20968;-44
2022/10/16 02:01:54;;;;;;;14.53;8.35;;;;;;;12.65;87.78;99185.97;1750131;82;21015;-45
2022/10/16 02:04:36;;;;;;;14.47;8.90;;;;;;;12.64;87.29;99186.91;1750101;82;21482;-45
2022/10/16 02:07:02;;;;;;;10.63;8.03;;;;;;;12.60;87.30;99184.94;1750171;82;21538;-42
2022/10/16 02:09:31;;;;;;;11.30;8.10;;;;;;;12.57;87.51;99183.84;1750162;82;20979;-47
2022/10/16 02:11:59;;;;;;;11.93;8.38;;;;;;;12.56;87.60;99192.69;1750137;82;20960;-46
2022/10/16 02:14:26;;;;;;;12.05;8.30;;;;;;;12.53;88.12;99191.56;1750150;82;20976;-49
2022/10/16 02:16:52;;;;;;;11.25;7.80;;;;;;;12.51;88.40;99188.17;1750244;82;21430;-46
2022/10/16 02:19:20;;;;;;;13.78;9.00;;;;;;;12.49;88.56;99191.39;1750204;82;20983;-49
2022/10/16 02:21:51;;;;;;;12.30;8.33;;;;;;;12.47;88.83;99193.28;1750190;82;20988;-49
2022/10/16 02:24:34;;;;;;;14.03;8.80;;;;;;;12.47;88.37;99193.28;1750075;82;21007;-46
2022/10/16 02:27:05;;;;;;;13.28;9.35;;;;;;;12.44;89.22;99196.11;1718344;82;20992;-40
2022/10/16 02:29:34;;;;;;;10.32;8.00;;;;;;;12.44;88.94;99196.11;1748621;82;20956;-47
2022/10/16 02:32:04;;;;;;;13.13;8.60;;;;;;;12.43;88.98;99194.44;1750341;80;20976;-45
2022/10/16 02:34:32;;;;;;;10.38;8.15;;;;;;;12.42;89.13;99201.95;1750112;82;20992;-43
2022/10/16 02:37:01;;;;;;;13.70;8.13;;;;;;;12.42;88.92;99200.64;1750163;82;20952;-46
2022/10/16 02:39:29;;;;;;;10.98;8.53;;;;;;;12.40;89.56;99198.58;1750127;82;20987;-49
2022/10/16 02:43:33;;;;;;;12.93;8.48;;;;;;;12.37;90.56;99200.95;1799391;79;22235;-44
2022/10/16 02:46:00;;;;;;;12.98;9.13;;;;;;;12.32;90.59;99202.20;1760434;80;21070;-42
2022/10/16 02:48:26;;;;;;;12.67;8.77;;;;;;;12.33;90.20;99207.34;1761921;80;20999;-48
2022/10/16 02:50:51;;;;;;;13.05;8.80;;;;;;;12.33;90.26;99203.88;1761732;81;21047;-42
2022/10/16 02:53:17;;;;;;;15.00;9.10;;;;;;;12.32;90.54;99203.03;1761728;81;20995;-42
2022/10/16 02:55:43;;;;;;;11.83;8.78;;;;;;;12.33;90.54;99202.55;1761708;80;21586;-43
2022/10/16 02:58:09;;;;;;;12.53;9.83;;;;;;;12.33;90.20;99206.03;1761746;81;21112;-43
2022/10/16 03:00:35;;;;;;;12.68;9.25;;;;;;;12.34;90.69;99206.90;1761726;81;20979;-44
2022/10/16 03:03:00;;;;;;;16.02;9.98;;;;;;;12.34;90.34;99213.48;1761755;81;21356;-44
2022/10/16 03:05:26;;;;;;;16.48;9.73;;;;;;;12.34;90.01;99209.53;1761713;81;20983;-39
2022/10/16 03:07:52;;;;;;;13.60;8.85;;;;;;;12.34;90.28;99208.22;1761728;81;20983;-40
2022/10/16 03:10:18;;;;;;;18.32;10.65;;;;;;;12.33;90.30;99216.58;1761730;80;20987;-42
2022/10/16 03:12:44;;;;;;;13.45;9.90;;;;;;;12.33;90.61;99212.62;1761845;80;20990;-42
2022/10/16 03:15:10;;;;;;;15.20;10.50;;;;;;;12.32;91.48;99214.90;1761735;81;20984;-45
2022/10/16 03:17:36;;;;;;;15.20;10.30;;;;;;;12.34;90.97;99216.97;1761701;80;20991;-44
2022/10/16 03:20:03;;;;;;;17.27;10.10;;;;;;;12.36;91.58;99223.47;1760920;80;20976;-43
2022/10/16 03:22:29;;;;;;;16.87;10.32;;;;;;;12.36;91.61;99224.30;1761902;81;21022;-43
2022/10/16 03:24:55;;;;;;;15.23;10.10;;;;;;;12.40;91.16;99227.11;1761687;81;20995;-40
2022/10/16 03:27:20;;;;;;;14.00;10.45;;;;;;;12.42;91.32;99225.70;1761673;80;20999;-46
2022/10/16 03:29:46;;;;;;;16.93;10.13;;;;;;;12.45;91.52;99226.83;1761681;80;20971;-44
2022/10/16 03:32:12;;;;;;;13.95;9.95;;;;;;;12.48;91.07;99229.28;1761647;80;21434;-44
2022/10/16 03:34:38;;;;;;;18.05;10.55;;;;;;;12.49;91.43;99228.31;1761708;81;20964;-40
2022/10/16 03:37:04;;;;;;;15.13;10.80;;;;;;;12.52;91.32;99226.81;1761756;81;20987;-47
2022/10/16 03:39:29;;;;;;;18.40;10.82;;;;;;;12.54;91.30;99226.23;1761753;81;20976;-44
2022/10/16 03:41:55;;;;;;;15.75;10.38;;;;;;;12.56;91.37;99230.09;1761620;80;21004;-41
2022/10/16 03:44:21;;;;;;;17.73;10.23;;;;;;;12.60;91.18;99234.22;1761928;81;21082;-47
2022/10/16 03:46:47;;;;;;;15.03;10.50;;;;;;;12.60;91.00;99233.73;1761930;81;21617;-43
2022/10/16 03:49:13;;;;;;;17.17;10.90;;;;;;;12.59;91.63;99232.55;1761957;81;21038;-41
2022/10/16 03:51:38;;;;;;;17.77;11.03;;;;;;;12.61;91.33;99236.77;1761973;81;20987;-42
2022/10/16 03:54:04;;;;;;;14.33;10.20;;;;;;;12.60;91.47;99227.62;1761582;81;20992;-41
2022/10/16 03:56:30;;;;;;;16.42;10.63;;;;;;;12.62;91.04;99234.48;1761425;81;20990;-43
2022/10/16 03:58:56;;;;;;;17.75;11.35;;;;;;;12.59;92.08;99230.75;1761409;81;20987;-45
2022/10/16 04:01:21;;;;;;;15.18;10.55;;;;;;;12.60;92.18;99217.91;1761340;81;21015;-44
2022/10/16 04:03:47;;;;;;;18.23;10.88;;;;;;;12.58;92.27;99213.21;1761399;81;21026;-42
2022/10/16 04:06:13;;;;;;;16.00;11.30;;;;;;;12.62;92.12;99223.09;1761436;81;21434;-41
2022/10/16 04:08:39;;;;;;;19.50;11.68;;;;;;;12.62;92.01;99223.93;1761512;81;21558;-39
2022/10/16 04:11:05;;;;;;;14.75;11.03;;;;;;;12.63;91.95;99223.00;1761467;81;21388;-48
2022/10/16 04:13:31;;;;;;;14.13;10.63;;;;;;;12.64;92.09;99222.06;1761454;81;20995;-40
2022/10/16 04:15:57;;;;;;;16.75;10.98;;;;;;;12.68;91.64;99230.15;1761389;81;20987;-44
2022/10/16 04:18:23;;;;;;;18.23;11.65;;;;;;;12.70;91.73;99237.09;1761376;81;21015;-43
2022/10/16 04:20:49;;;;;;;16.02;11.33;;;;;;;12.75;91.63;99236.33;1761376;81;21003;-43
2022/10/16 04:23:14;;;;;;;20.32;11.78;;;;;;;12.77;91.42;99238.39;1761332;81;20984;-46
2022/10/16 04:25:40;;;;;;;16.80;11.60;;;;;;;12.77;91.94;99237.08;1761414;81;20967;-46
2022/10/16 04:28:06;;;;;;;17.92;11.57;;;;;;;12.76;92.15;99240.20;1761442;81;20988;-44
2022/10/16 04:30:33;;;;;;;18.10;11.25;;;;;;;12.78;91.81;99235.66;1761364;81;20982;-43
2022/10/16 04:32:59;;;;;;;14.10;11.20;;;;;;;12.81;91.21;99245.19;1761523;81;20963;-46
2022/10/16 04:35:25;;;;;;;18.02;11.57;;;;;;;12.83;91.40;99245.93;1761462;81;21515;-46
2022/10/16 04:37:51;;;;;;;17.20;11.28;;;;;;;12.85;91.07;99253.27;1761422;81;21452;-45
2022/10/16 04:40:17;;;;;;;19.15;12.25;;;;;;;12.87;91.23;99251.38;1761343;81;20987;-46
2022/10/16 04:42:43;;;;;;;19.30;12.15;;;;;;;12.86;91.81;99250.53;1755251;81;21051;-46
2022/10/16 04:45:09;;;;;;;16.37;11.55;;;;;;;12.89;91.65;99261.83;1747987;81;21028;-41
2022/10/16 04:47:35;;;;;;;18.82;12.33;;;;;;;12.93;91.22;99261.52;1748014;81;21019;-46
2022/10/16 04:50:02;;;;;;;24.37;12.75;;;;;;;12.96;91.15;99267.09;1748046;81;21000;-44
2022/10/16 04:52:28;;;;;;;19.75;11.97;;;;;;;12.97;91.42;99260.84;1748193;81;21441;-44
2022/10/16 04:54:55;;;;;;;15.23;11.43;;;;;;;12.98;91.55;99269.98;1748078;81;20995;-47
2022/10/16 04:57:21;;;;;;;25.10;13.15;;;;;;;12.99;91.41;99261.13;1748156;81;20987;-43
2022/10/16 04:59:47;;;;;;;22.17;11.78;;;;;;;13.02;91.20;99263.58;1747984;82;21430;-46
2022/10/16 05:02:12;;;;;;;21.65;12.15;;;;;;;13.05;91.31;99255.92;1748025;81;20964;-39
2022/10/16 05:04:38;;;;;;;20.50;12.15;;;;;;;13.06;91.36;99260.23;1748060;81;20980;-45
2022/10/16 05:07:04;;;;;;;19.07;12.23;;;;;;;13.09;91.32;99253.92;1748046;81;21043;-40
2022/10/16 05:09:29;;;;;;;18.40;11.70;;;;;;;13.13;90.90;99255.41;1748042;82;20991;-44
2022/10/16 05:11:55;;;;;;;22.52;12.60;;;;;;;13.14;90.76;99249.19;1748012;82;21492;-44
2022/10/16 05:14:21;;;;;;;21.45;11.43;;;;;;;13.15;90.40;99250.41;1747988;82;21473;-43
2022/10/16 05:16:48;;;;;;;19.20;12.15;;;;;;;13.13;91.19;99256.23;1748085;81;21364;-45
2022/10/16 05:19:13;;;;;;;19.82;11.45;;;;;;;13.16;90.70;99254.73;1748232;81;20980;-44
2022/10/16 05:21:39;;;;;;;18.25;11.25;;;;;;;13.19;90.60;99252.38;1747958;82;21019;-44
2022/10/16 05:24:05;;;;;;;17.55;10.95;;;;;;;13.23;90.73;99253.85;1747978;81;21034;-38
2022/10/16 05:26:31;;;;;;;17.15;11.03;;;;;;;13.27;90.64;99262.42;1747674;81;21027;-40
2022/10/16 05:28:56;;;;;;;16.00;10.80;;;;;;;13.29;90.54;99261.84;1746815;81;21073;-41
2022/10/16 05:31:22;;;;;;;21.45;10.55;;;;;;;13.30;90.60;99259.55;1747098;81;21027;-39
2022/10/16 05:33:48;;;;;;;17.73;11.45;;;;;;;13.32;90.38;99255.91;1747936;82;20984;-47
2022/10/16 05:36:14;;;;;;;19.90;11.85;;;;;;;13.32;90.38;99251.95;1747966;82;21015;-45
2022/10/16 05:38:40;;;;;;;19.65;11.68;;;;;;;13.36;90.38;99260.51;1748156;81;20980;-45
2022/10/16 05:41:05;;;;;;;18.75;11.93;;;;;;;13.38;90.05;99262.09;1747950;81;20952;-44
2022/10/16 05:46:20;;;;;;;19.65;10.78;;;;;;;13.46;89.91;99264.69;1818405;79;22506;-49
2022/10/16 05:48:46;;;;;;;17.87;10.93;;;;;;;13.45;89.91;99271.77;1793017;80;21062;-43
2022/10/16 05:51:14;;;;;;;13.50;10.82;;;;;;;13.46;89.62;99264.20;1792989;80;21062;-47
2022/10/16 05:53:42;;;;;;;20.43;10.95;;;;;;;13.49;89.65;99275.05;1792918;80;21606;-41
2022/10/16 05:56:10;;;;;;;16.10;10.80;;;;;;;13.49;89.75;99269.77;1792898;80;20979;-49
2022/10/16 05:58:40;;;;;;;16.77;11.15;;;;;;;13.49;89.68;99274.57;1793221;80;20991;-50
2022/10/16 06:01:13;;;;;;;19.37;11.12;;;;;;;13.51;89.72;99287.20;1792784;80;21026;-42
2022/10/16 06:03:39;;;;;;;19.12;11.93;;;;;;;13.52;89.50;99279.66;1792935;80;21405;-38
2022/10/16 06:06:11;;;;;;;14.98;11.18;;;;;;;13.54;89.65;99280.88;1792983;80;20991;-46
2022/10/16 06:08:37;;;;;;;20.17;11.18;;;;;;;13.55;89.60;99279.91;1792860;80;21022;-48
2022/10/16 06:11:09;;;;;;;14.35;11.20;;;;;;;13.58;89.61;99285.00;1792889;80;21021;-46
2022/10/16 06:13:35;;;;;;;16.32;10.75;;;;;;;13.60;89.53;99293.17;1792919;80;21467;-43
2022/10/16 06:16:03;;;;;;;19.92;11.40;;;;;;;13.63;89.43;99300.07;1788289;80;20963;-47
2022/10/16 06:18:29;;;;;;;28.83;12.60;;;;;;;;;;1793125;80;20986;-43
2022/10/16 06:20:55;;;;;;;20.27;11.00;;;;;;;13.61;89.52;99301.97;1792858;80;20975;-51
2022/10/16 06:23:22;;;;;;;17.40;10.93;;;;;;;13.61;89.36;99305.45;1793152;80;21042;-45
2022/10/16 06:25:48;;;;;;;16.93;11.48;;;;;;;13.62;89.28;99314.22;1793251;80;21451;-45
2022/10/16 06:28:15;;;;;;;14.83;10.78;;;;;;;13.60;89.55;99313.48;1793013;80;21026;-46
2022/10/16 06:30:43;;;;;;;15.30;11.03;;;;;;;13.58;89.74;99314.90;1793148;80;21006;-46
2022/10/16 06:33:08;;;;;;;17.02;11.38;;;;;;;;;;1792729;80;21492;-45
2022/10/16 06:35:34;;;;;;;15.53;11.25;;;;;;;13.69;89.40;99326.55;1792861;80;21429;-43
2022/10/16 06:38:00;;;;;;;18.25;11.33;;;;;;;13.74;89.22;99331.05;1793277;80;20982;-45
2022/10/16 06:40:26;;;;;;;15.75;10.65;;;;;;;13.79;88.99;99335.08;1792925;80;21031;-43
2022/10/16 06:42:56;;;;;;;16.07;11.53;;;;;;;13.86;89.04;99339.93;1792923;80;20986;-46
2022/10/16 06:45:22;;;;;;;18.27;11.50;;;;;;;13.88;89.07;99342.86;1785990;80;21560;-42
2022/10/16 06:47:48;;;;;;;17.90;11.40;;;;;;;13.95;88.90;99340.63;1779393;80;21003;-41
2022/10/16 06:50:14;;;;;;;17.50;11.70;;;;;;;14.02;88.48;99339.25;1779269;80;21046;-42
2022/10/16 06:52:40;;;;;;;18.12;10.80;;;;;;;14.06;88.69;99339.44;1779350;81;20991;-46
2022/10/16 06:55:06;;;;;;;21.35;11.33;;;;;;;14.08;88.43;99346.78;1779553;81;20978;-44
2022/10/16 06:57:32;;;;;;;23.00;11.43;;;;;;;14.12;88.15;99347.42;1779043;81;20987;-44
2022/10/16 06:59:58;;;;;;;25.08;11.12;;;;;;;14.12;88.16;99351.39;1778734;81;20959;-41
2022/10/16 07:02:24;;;;;;;25.88;11.85;;;;;;;14.13;88.20;99363.64;1778782;80;21022;-39
2022/10/16 07:04:49;;;;;;;15.75;10.63;;;;;;;14.13;88.20;99369.77;1778720;81;20956;-43
2022/10/16 07:07:15;;;;;;;19.00;12.18;;;;;;;14.15;88.08;99371.85;1778891;80;20983;-46
2022/10/16 07:09:41;;;;;;;19.23;12.13;;;;;;;14.18;87.89;99374.27;1778890;81;20975;-40
2022/10/16 07:12:06;;;;;;;17.48;11.12;;;;;;;14.18;87.72;99378.23;1778821;81;21022;-45
2022/10/16 07:14:32;;;;;;;18.30;11.40;;;;;;;14.18;87.86;99378.23;1778786;81;21492;-46
2022/10/16 07:16:58;;;;;;;22.07;11.38;;;;;;;14.18;87.92;99371.62;1778885;81;21468;-49
2022/10/16 07:19:25;;;;;;;15.80;11.35;;;;;;;14.23;87.82;99363.87;1778737;81;21488;-49
2022/10/16 07:21:50;;;;;;;19.25;12.23;;;;;;;14.24;88.04;99365.55;1778979;81;21002;-42
2022/10/16 07:24:17;;;;;;;16.40;11.73;;;;;;;14.27;88.01;99350.31;1778714;81;20979;-45
2022/10/16 07:26:45;;;;;;;14.45;11.15;;;;;;;14.30;87.86;99358.04;1778733;81;20991;-42
2022/10/16 07:29:18;;;;;;;17.17;11.43;;;;;;;14.32;87.95;99352.16;1778761;81;20980;-44
2022/10/16 07:31:44;;;;;;;21.05;12.55;;;;;;;14.34;87.82;99354.22;1778143;80;20983;-44
2022/10/16 07:34:13;;;;;;;17.20;11.60;;;;;;;14.37;87.76;99338.14;1779209;81;21039;-44
2022/10/16 07:36:39;;;;;;;15.35;11.50;;;;;;;14.45;87.48;99338.91;1778743;81;20968;-45
2022/10/16 07:39:05;;;;;;;21.85;11.63;;;;;;;14.51;87.50;99335.83;1778773;81;20959;-47
2022/10/16 07:41:32;;;;;;;18.73;11.75;;;;;;;14.54;87.56;99338.27;1778736;81;21026;-45
2022/10/16 07:44:01;;;;;;;17.55;11.25;;;;;;;14.62;87.55;99349.66;1778820;81;20992;-45
2022/10/16 07:46:28;;;;;;;16.35;11.85;;;;;;;14.71;87.34;99350.31;1778692;80;21067;-43
2022/10/16 07:48:54;;;;;;;22.63;12.30;;;;;;;14.80;87.01;99354.11;1779001;81;20987;-48
2022/10/16 07:51:23;;;;;;;20.23;12.75;;;;;;;14.86;86.57;99362.95;1779193;81;21031;-48
2022/10/16 07:53:49;;;;;;;18.77;11.60;;;;;;;14.96;86.56;99365.28;1778798;81;20995;-44
2022/10/16 07:56:17;;;;;;;18.17;11.88;;;;;;;15.06;86.49;99372.56;1778721;80;20983;-49
2022/10/16 07:58:44;;;;;;;19.92;12.15;;;;;;;15.15;86.22;99379.84;1778697;81;20990;-43
2022/10/16 08:01:14;;;;;;;20.68;12.25;;;;;;;15.24;86.02;99384.95;1757159;81;20964;-46
2022/10/16 08:03:45;;;;;;;16.12;11.50;;;;;;;15.31;85.57;99389.67;1778718;81;20975;-44
2022/10/16 08:06:11;;;;;;;20.65;12.63;;;;;;;15.41;85.37;99387.67;1778713;81;20964;-45
2022/10/16 08:08:36;;;;;;;18.40;11.65;;;;;;;15.43;84.68;99385.78;1778722;81;20987;-41
2022/10/16 08:11:06;;;;;;;17.48;11.05;;;;;;;15.48;84.39;99387.59;1778734;81;20963;-42
2022/10/16 08:13:31;;;;;;;19.15;11.65;;;;;;;15.51;84.08;99386.05;1777097;80;21514;-40
2022/10/16 08:15:57;;;;;;;15.17;12.03;;;;;;;15.57;83.75;99388.72;1779001;81;21030;-44
2022/10/16 08:18:23;;;;;;;19.70;13.13;;;;;;;15.66;84.19;99399.95;1778970;81;21028;-47
2022/10/16 08:20:57;;;;;;;18.48;13.65;;;;;;;15.70;83.53;99398.79;1778767;81;20995;-41
2022/10/16 08:23:25;;;;;;;15.43;11.48;;;;;;;15.73;82.98;99399.41;1776992;80;20968;-43
2022/10/16 08:25:53;;;;;;;21.50;12.55;;;;;;;15.80;83.01;99406.43;1778686;81;21085;-42
2022/10/16 08:28:19;;;;;;;;;;;;;;;15.85;82.92;99408.27;1781398;81;21053;-47
2022/10/16 08:30:45;;;;;;;31.30;11.93;;;;;;;15.90;82.75;99414.06;1779072;81;20113;-39
2022/10/16 08:33:11;;;;;;;19.73;11.88;;;;;;;15.95;82.48;99416.36;1778792;81;20979;-44
2022/10/16 08:35:36;;;;;;;19.15;10.68;;;;;;;16.00;82.57;99418.19;1778750;81;21022;-42
2022/10/16 08:38:06;;;;;;;15.65;10.80;;;;;;;16.03;82.20;99414.47;1778806;80;21464;-50
2022/10/16 08:40:36;;;;;;;14.28;10.60;;;;;;;16.09;82.08;99416.16;1778691;80;21011;-38
2022/10/16 08:43:22;;;;;;;20.50;10.95;;;;;;;16.00;80.90;99410.23;1778809;81;21497;-47
2022/10/16 08:46:18;;;;;;;15.93;11.07;;;;;;;16.06;81.09;99411.56;1778972;81;21138;-50
2022/10/16 08:48:53;;;;;;;16.85;11.53;;;;;;;16.11;81.47;99422.19;1778793;80;20952;-42
2022/10/16 08:51:26;;;;;;;17.55;10.90;;;;;;;16.14;81.09;99427.76;1778740;81;21532;-46
2022/10/16 08:54:05;;;;;;;16.65;11.08;;;;;;;16.08;80.67;99425.55;1778755;81;21449;-43
2022/10/16 08:56:32;;;;;;;12.90;10.28;;;;;;;16.10;81.27;99424.49;1778701;81;21034;-41
2022/10/16 08:58:59;;;;;;;14.83;10.75;;;;;;;16.11;81.39;99426.17;1778733;81;20936;-51
2022/10/16 09:01:39;;;;;;;18.32;11.22;;;;;;;16.12;81.29;99427.03;1778858;80;20975;-44
2022/10/16 09:04:47;;;;;;;19.17;11.20;;;;;;;16.18;81.44;99423.06;1774867;80;20975;-47
2022/10/16 09:07:34;;;;;;;17.70;10.72;;;;;;;16.27;81.63;99423.19;1778627;80;21465;-44
2022/10/16 09:10:28;;;;;;;18.07;11.10;;;;;;;16.32;80.87;99406.94;1778159;80;21007;-48
2022/10/16 09:13:23;;;;;;;15.03;10.98;;;;;;;16.31;80.31;99409.20;1778678;80;21022;-48
2022/10/16 09:16:09;;;;;;;17.35;11.05;;;;;;;16.43;80.65;99411.41;1778690;81;20967;-45
2022/10/16 09:18:43;;;;;;;20.80;11.10;;;;;;;16.56;80.55;99408.64;1750715;81;20982;-45
2022/10/16 09:21:17;;;;;;;13.08;10.32;;;;;;;16.63;79.96;99411.17;1778701;81;20940;-45
2022/10/16 09:23:43;;;;;;;12.90;10.48;;;;;;;16.62;78.83;99407.66;1778862;81;21015;-52
2022/10/16 09:26:14;;;;;;;17.17;10.60;;;;;;;16.74;79.53;99413.83;1778799;81;21588;-44
2022/10/16 09:28:40;;;;;;;20.52;11.63;;;;;;;16.69;78.41;99410.69;1782508;80;21540;-48
2022/10/16 09:31:16;;;;;;;18.23;11.70;;;;;;;16.79;79.17;99406.34;1778947;80;21006;-48
2022/10/16 09:33:44;;;;;;;14.05;10.23;;;;;;;16.88;79.25;99404.31;1778858;81;21441;-48
2022/10/16 09:36:12;;;;;;;18.27;9.88;;;;;;;16.95;78.69;99409.13;1778810;81;20975;-47
2022/10/16 09:38:38;;;;;;;15.50;10.55;;;;;;;17.00;78.70;99409.61;1778628;81;21051;-46
2022/10/16 09:41:18;;;;;;;14.93;10.63;;;;;;;17.06;78.43;99415.75;1778651;81;20972;-46
2022/10/16 09:43:55;;;;;;;16.17;10.05;;;;;;;17.10;77.91;99408.38;1778675;80;20959;-43
2022/10/16 09:46:35;;;;;;;;;;;;;;;17.17;77.75;99416.21;1778998;80;21043;-48
2022/10/16 09:49:05;;;;;;;15.65;10.50;;;;;;;17.16;76.24;99419.86;1767894;81;20642;-52
2022/10/16 09:51:36;;;;;;;17.60;10.23;;;;;;;17.30;77.49;99419.59;1772857;80;20948;-47
2022/10/16 09:54:13;;;;;;;11.83;9.88;;;;;;;17.31;75.83;99420.42;1778431;80;20973;-49
2022/10/16 09:56:40;;;;;;;14.40;10.10;;;;;;;17.41;76.08;99421.37;1778737;81;21015;-45
2022/10/16 09:59:12;;;;;;;17.87;10.33;;;;;;;17.49;76.68;99425.56;1778546;81;21535;-41
2022/10/16 10:01:43;;;;;;;14.87;10.25;;;;;;;17.41;74.92;99424.86;1777831;80;21365;-39
2022/10/16 10:04:10;;;;;;;14.05;9.83;;;;;;;17.61;75.37;99427.22;1778558;81;20948;-46
2022/10/16 10:06:56;;;;;;;14.60;9.93;;;;;;;17.65;74.85;99418.50;1778628;80;20983;-42
2022/10/16 10:09:29;;;;;;;11.67;9.63;;;;;;;17.85;74.25;99426.19;1778868;81;21583;-49
2022/10/16 10:12:03;;;;;;;16.25;10.15;;;;;;;17.92;74.43;99427.36;1778762;81;21014;-47
2022/10/16 10:14:48;;;;;;;14.23;9.83;;;;;;;17.99;74.43;99425.88;1778775;81;21496;-49
2022/10/16 10:17:19;;;;;;;11.93;8.88;;;;;;;18.05;74.27;99426.34;1778967;81;21515;-47
2022/10/16 10:20:01;;;;;;;11.68;9.05;;;;;;;18.01;73.43;99426.59;1778779;80;20971;-50
2022/10/16 10:22:45;;;;;;;10.90;8.80;;;;;;;17.98;73.03;99428.17;1755521;81;20964;-45
2022/10/16 10:25:22;;;;;;;13.35;7.95;;;;;;;18.08;73.54;99423.40;1778761;81;21061;-44
2022/10/16 10:28:07;;;;;;;;;;;;;;;18.12;73.41;99416.83;1781524;81;20983;-44
2022/10/16 10:30:54;;;;;;;19.02;9.23;;;;;;;18.20;73.24;99419.70;1778912;80;20121;-42
2022/10/16 10:33:43;;;;;;;12.35;8.30;;;;;;;18.36;73.58;99428.56;1778343;81;20968;-47
2022/10/16 10:36:36;;;;;;;13.40;8.55;;;;;;;18.39;72.52;99431.81;1778848;81;21006;-42
2022/10/16 10:39:19;;;;;;;12.28;7.97;;;;;;;18.46;72.60;99428.61;1778964;81;20987;-39
2022/10/16 10:42:06;;;;;;;10.30;7.90;;;;;;;18.50;72.21;99426.03;1778359;80;20979;-41
2022/10/16 10:45:11;;;;;;;10.40;8.50;;;;;;;18.55;72.41;99425.16;1779273;80;20992;-50
2022/10/16 10:47:54;;;;;;;11.83;8.30;;;;;;;18.64;72.46;99428.34;1779084;80;21504;-40
2022/10/16 10:50:34;;;;;;;13.60;8.65;;;;;;;18.68;72.34;99435.12;1778980;81;20964;-49
2022/10/16 10:53:28;;;;;;;11.03;7.78;;;;;;;18.69;71.80;99428.80;1769914;81;20972;-44
2022/10/16 10:56:18;;;;;;;10.25;7.50;;;;;;;18.79;72.25;99427.49;1778396;80;20956;-42
2022/10/16 10:59:04;;;;;;;10.70;8.10;;;;;;;18.82;72.06;99427.77;1777505;80;20983;-41
2022/10/16 11:01:55;;;;;;;8.28;6.85;;;;;;;18.86;71.86;99430.01;1778599;80;21488;-49
2022/10/16 11:04:47;;;;;;;10.08;6.60;;;;;;;18.87;71.12;99429.55;1778858;80;21027;-46
2022/10/16 11:07:30;;;;;;;13.13;7.15;;;;;;;18.77;70.21;99428.98;1778920;81;20971;-46
2022/10/16 11:10:01;;;;;;;12.55;6.58;;;;;;;18.92;71.22;99421.99;1778931;81;20984;-44
2022/10/16 11:12:38;;;;;;;7.42;6.37;;;;;;;18.98;70.62;99414.28;1778140;81;21080;-43
2022/10/16 11:15:32;;;;;;;13.30;6.97;;;;;;;19.04;70.65;99423.55;1779009;80;20995;-38
2022/10/16 11:18:22;;;;;;;17.10;6.62;;;;;;;19.10;71.13;99408.83;1778242;81;20979;-47
2022/10/16 11:21:00;;;;;;;8.40;6.40;;;;;;;19.13;70.62;99405.41;1778929;81;21465;-44
2022/10/16 11:23:54;;;;;;;11.93;6.28;;;;;;;19.20;70.31;99406.21;1778791;81;20983;-45
2022/10/16 11:26:25;;;;;;;7.60;6.00;;;;;;;19.27;70.25;99418.02;1777775;80;20971;-42
2022/10/16 11:28:59;;;;;;;10.90;6.47;;;;;;;19.34;69.99;99407.15;1778981;81;21163;-44
2022/10/16 11:31:39;;;;;;;10.18;5.28;;;;;;;19.40;69.72;99405.75;1778944;81;20980;-45
2022/10/16 11:34:15;;;;;;;6.78;5.92;;;;;;;19.41;69.11;99410.95;1779020;81;21023;-40
2022/10/16 11:36:48;;;;;;;11.20;6.30;;;;;;;19.46;69.23;99404.69;1778712;80;20971;-43
2022/10/16 11:39:24;;;;;;;6.65;5.65;;;;;;;19.51;69.11;99393.11;1778985;80;21023;-43
2022/10/16 11:42:13;;;;;;;7.55;5.75;;;;;;;19.65;68.42;99403.87;1779178;81;20975;-45
2022/10/16 11:45:04;;;;;;;5.83;5.22;;;;;;;19.81;68.48;99404.68;1778876;81;20983;-44
2022/10/16 11:47:51;;;;;;;5.80;5.17;;;;;;;19.89;67.88;99417.30;1778346;80;21000;-47